sensor_id;sensor_type;location;lat;lon;timestamp;P1;durP1;ratioP1;P2;durP2;ratioP2
29378;SDS011;16362;47.202;15.258;2024-03-23T00:55:01;3.42;;;2.45;;
29378;SDS011;16362;47.202;15.258;2024-03-23T00:57:27;2.17;;;2.08;;
29378;SDS011;16362;47.202;15.258;2024-03-23T00:59:52;1.90;;;1.80;;
29378;SDS011;16362;47.202;15.258;2024-03-23T01:02:20;2.88;;;2.78;;
29378;SDS011;16362;47.202;15.258;2024-03-23T01:04:47;2.78;;;2.25;;
29378;SDS011;16362;47.202;15.258;2024-03-23T01:07:13;2.55;;;2.45;;
29378;SDS011;16362;47.202;15.258;2024-03-23T01:09:39;2.65;;;2.45;;
29378;SDS011;16362;47.202;15.258;2024-03-23T01:12:05;3.00;;;2.80;;
29378;SDS011;16362;47.202;15.258;2024-03-23T01:14:37;7.95;;;2.75;;
29378;SDS011;16362;47.202;15.258;2024-03-23T01:17:08;2.53;;;2.42;;
29378;SDS011;16362;47.202;15.258;2024-03-23T01:19:35;2.35;;;2.25;;
29378;SDS011;16362;47.202;15.258;2024-03-23T01:22:02;2.40;;;2.30;;
29378;SDS011;16362;47.202;15.258;2024-03-23T01:24:30;4.50;;;2.58;;
29378;SDS011;16362;47.202;15.258;2024-03-23T01:27:01;2.88;;;2.63;;
29378;SDS011;16362;47.202;15.258;2024-03-23T01:29:34;2.78;;;2.58;;
29378;SDS011;16362;47.202;15.258;2024-03-23T01:32:00;2.28;;;2.17;;
29378;SDS011;16362;47.202;15.258;2024-03-23T01:34:26;2.67;;;2.47;;
29378;SDS011;16362;47.202;15.258;2024-03-23T01:36:56;3.08;;;2.35;;
29378;SDS011;16362;47.202;15.258;2024-03-23T01:39:22;2.47;;;2.38;;
29378;SDS011;16362;47.202;15.258;2024-03-23T01:41:50;2.50;;;2.40;;
29378;SDS011;16362;47.202;15.258;2024-03-23T01:44:20;2.78;;;2.67;;
29378;SDS011;16362;47.202;15.258;2024-03-23T01:46:56;2.55;;;2.45;;
29378;SDS011;16362;47.202;15.258;2024-03-23T01:49:22;2.72;;;2.63;;
29378;SDS011;16362;47.202;15.258;2024-03-23T01:52:06;3.15;;;2.95;;
29378;SDS011;16362;47.202;15.258;2024-03-23T01:54:37;4.60;;;3.05;;
29378;SDS011;16362;47.202;15.258;2024-03-23T01:57:05;7.50;;;3.05;;
29378;SDS011;16362;47.202;15.258;2024-03-23T01:59:32;3.00;;;2.80;;
29378;SDS011;16362;47.202;15.258;2024-03-23T02:01:58;2.90;;;2.70;;
29378;SDS011;16362;47.202;15.258;2024-03-23T02:04:24;2.67;;;2.58;;
29378;SDS011;16362;47.202;15.258;2024-03-23T02:06:49;2.50;;;2.40;;
29378;SDS011;16362;47.202;15.258;2024-03-23T02:09:15;2.55;;;2.45;;
29378;SDS011;16362;47.202;15.258;2024-03-23T02:11:41;2.50;;;2.40;;
29378;SDS011;16362;47.202;15.258;2024-03-23T02:14:07;3.72;;;2.63;;
29378;SDS011;16362;47.202;15.258;2024-03-23T02:16:33;2.20;;;2.10;;
29378;SDS011;16362;47.202;15.258;2024-03-23T02:18:58;2.95;;;2.75;;
29378;SDS011;16362;47.202;15.258;2024-03-23T02:21:24;2.72;;;2.60;;
29378;SDS011;16362;47.202;15.258;2024-03-23T02:23:51;4.57;;;2.53;;
29378;SDS011;16362;47.202;15.258;2024-03-23T02:26:16;2.33;;;2.22;;
29378;SDS011;16362;47.202;15.258;2024-03-23T02:28:42;3.13;;;2.95;;
29378;SDS011;16362;47.202;15.258;2024-03-23T02:31:08;3.88;;;2.47;;
29378;SDS011;16362;47.202;15.258;2024-03-23T02:33:33;2.17;;;2.08;;
29378;SDS011;16362;47.202;15.258;2024-03-23T02:36:03;3.05;;;2.53;;
29378;SDS011;16362;47.202;15.258;2024-03-23T02:38:31;2.75;;;2.65;;
29378;SDS011;16362;47.202;15.258;2024-03-23T02:41:07;2.70;;;2.50;;
29378;SDS011;16362;47.202;15.258;2024-03-23T02:43:33;2.55;;;2.45;;
29378;SDS011;16362;47.202;15.258;2024-03-23T02:45:58;10.35;;;2.70;;
29378;SDS011;16362;47.202;15.258;2024-03-23T02:48:28;2.63;;;2.53;;
29378;SDS011;16362;47.202;15.258;2024-03-23T02:50:58;2.58;;;2.38;;
29378;SDS011;16362;47.202;15.258;2024-03-23T02:53:24;2.60;;;2.38;;
29378;SDS011;16362;47.202;15.258;2024-03-23T02:55:49;2.90;;;2.70;;
29378;SDS011;16362;47.202;15.258;2024-03-23T02:58:28;3.13;;;2.92;;
29378;SDS011;16362;47.202;15.258;2024-03-23T03:00:54;2.67;;;2.58;;
29378;SDS011;16362;47.202;15.258;2024-03-23T03:03:27;3.03;;;2.83;;
29378;SDS011;16362;47.202;15.258;2024-03-23T03:05:56;3.03;;;2.83;;
29378;SDS011;16362;47.202;15.258;2024-03-23T03:08:26;2.58;;;2.47;;
29378;SDS011;16362;47.202;15.258;2024-03-23T03:10:55;2.83;;;2.63;;
29378;SDS011;16362;47.202;15.258;2024-03-23T03:13:21;4.28;;;2.67;;
29378;SDS011;16362;47.202;15.258;2024-03-23T03:15:47;2.50;;;2.40;;
29378;SDS011;16362;47.202;15.258;2024-03-23T03:18:20;2.58;;;2.38;;
29378;SDS011;16362;47.202;15.258;2024-03-23T03:20:54;2.72;;;2.63;;
29378;SDS011;16362;47.202;15.258;2024-03-23T03:23:20;2.42;;;2.22;;
29378;SDS011;16362;47.202;15.258;2024-03-23T03:25:48;2.47;;;2.38;;
29378;SDS011;16362;47.202;15.258;2024-03-23T03:28:18;2.67;;;2.58;;
29378;SDS011;16362;47.202;15.258;2024-03-23T03:30:47;3.28;;;2.85;;
29378;SDS011;16362;47.202;15.258;2024-03-23T03:33:18;3.03;;;2.83;;
29378;SDS011;16362;47.202;15.258;2024-03-23T03:35:51;3.40;;;2.75;;
29378;SDS011;16362;47.202;15.258;2024-03-23T03:38:21;2.92;;;2.83;;
29378;SDS011;16362;47.202;15.258;2024-03-23T03:41:01;2.65;;;2.38;;
29378;SDS011;16362;47.202;15.258;2024-03-23T03:43:27;2.38;;;2.28;;
29378;SDS011;16362;47.202;15.258;2024-03-23T03:45:53;2.50;;;2.40;;
29378;SDS011;16362;47.202;15.258;2024-03-23T03:48:20;2.95;;;2.75;;
29378;SDS011;16362;47.202;15.258;2024-03-23T03:50:46;2.95;;;2.35;;
29378;SDS011;16362;47.202;15.258;2024-03-23T03:53:12;2.05;;;2.00;;
29378;SDS011;16362;47.202;15.258;2024-03-23T03:55:37;2.33;;;2.20;;
29378;SDS011;16362;47.202;15.258;2024-03-23T03:58:03;2.40;;;2.30;;
29378;SDS011;16362;47.202;15.258;2024-03-23T04:00:30;2.80;;;2.70;;
29378;SDS011;16362;47.202;15.258;2024-03-23T04:02:56;3.20;;;3.00;;
29378;SDS011;16362;47.202;15.258;2024-03-23T04:05:22;2.40;;;2.30;;
29378;SDS011;16362;47.202;15.258;2024-03-23T04:07:48;2.60;;;2.47;;
29378;SDS011;16362;47.202;15.258;2024-03-23T04:10:14;2.97;;;2.78;;
29378;SDS011;16362;47.202;15.258;2024-03-23T04:12:40;2.70;;;2.60;;
29378;SDS011;16362;47.202;15.258;2024-03-23T04:15:06;2.40;;;2.30;;
29378;SDS011;16362;47.202;15.258;2024-03-23T04:17:32;2.63;;;2.53;;
29378;SDS011;16362;47.202;15.258;2024-03-23T04:20:00;3.10;;;2.20;;
29378;SDS011;16362;47.202;15.258;2024-03-23T04:22:26;2.53;;;2.42;;
29378;SDS011;16362;47.202;15.258;2024-03-23T04:24:57;2.30;;;2.20;;
29378;SDS011;16362;47.202;15.258;2024-03-23T04:27:29;2.55;;;2.20;;
29378;SDS011;16362;47.202;15.258;2024-03-23T04:29:55;2.60;;;2.38;;
29378;SDS011;16362;47.202;15.258;2024-03-23T04:32:20;2.83;;;2.58;;
29378;SDS011;16362;47.202;15.258;2024-03-23T04:34:47;2.38;;;2.13;;
29378;SDS011;16362;47.202;15.258;2024-03-23T04:37:13;2.83;;;2.38;;
29378;SDS011;16362;47.202;15.258;2024-03-23T04:39:43;2.40;;;2.20;;
29378;SDS011;16362;47.202;15.258;2024-03-23T04:42:09;2.67;;;2.40;;
29378;SDS011;16362;47.202;15.258;2024-03-23T04:44:36;2.35;;;2.25;;
29378;SDS011;16362;47.202;15.258;2024-03-23T04:47:06;2.35;;;2.25;;
29378;SDS011;16362;47.202;15.258;2024-03-23T04:49:33;3.00;;;2.03;;
29378;SDS011;16362;47.202;15.258;2024-03-23T04:52:00;2.60;;;2.50;;
29378;SDS011;16362;47.202;15.258;2024-03-23T04:54:26;2.33;;;2.22;;
29378;SDS011;16362;47.202;15.258;2024-03-23T04:57:05;2.22;;;2.13;;
29378;SDS011;16362;47.202;15.258;2024-03-23T04:59:33;2.78;;;2.63;;
29378;SDS011;16362;47.202;15.258;2024-03-23T05:02:03;2.50;;;2.30;;
29378;SDS011;16362;47.202;15.258;2024-03-23T05:04:33;2.30;;;2.20;;
29378;SDS011;16362;47.202;15.258;2024-03-23T05:06:58;2.47;;;2.38;;
29378;SDS011;16362;47.202;15.258;2024-03-23T05:09:27;2.90;;;2.80;;
29378;SDS011;16362;47.202;15.258;2024-03-23T05:11:55;3.83;;;2.35;;
29378;SDS011;16362;47.202;15.258;2024-03-23T05:14:26;3.33;;;2.53;;
29378;SDS011;16362;47.202;15.258;2024-03-23T05:16:52;2.35;;;2.25;;
29378;SDS011;16362;47.202;15.258;2024-03-23T05:19:24;5.00;;;2.53;;
29378;SDS011;16362;47.202;15.258;2024-03-23T05:21:50;2.60;;;2.50;;
29378;SDS011;16362;47.202;15.258;2024-03-23T05:24:16;2.47;;;2.30;;
29378;SDS011;16362;47.202;15.258;2024-03-23T05:26:42;2.50;;;2.40;;
29378;SDS011;16362;47.202;15.258;2024-03-23T05:29:07;2.65;;;2.45;;
29378;SDS011;16362;47.202;15.258;2024-03-23T05:31:36;3.35;;;3.17;;
29378;SDS011;16362;47.202;15.258;2024-03-23T05:34:02;3.60;;;3.17;;
29378;SDS011;16362;47.202;15.258;2024-03-23T05:36:29;3.63;;;2.83;;
29378;SDS011;16362;47.202;15.258;2024-03-23T05:38:54;3.75;;;3.08;;
29378;SDS011;16362;47.202;15.258;2024-03-23T05:41:20;3.53;;;3.22;;
29378;SDS011;16362;47.202;15.258;2024-03-23T05:43:47;3.10;;;3.00;;
29378;SDS011;16362;47.202;15.258;2024-03-23T05:46:13;3.20;;;3.00;;
29378;SDS011;16362;47.202;15.258;2024-03-23T05:48:40;3.53;;;3.28;;
29378;SDS011;16362;47.202;15.258;2024-03-23T05:51:07;2.50;;;2.40;;
29378;SDS011;16362;47.202;15.258;2024-03-23T05:53:41;2.85;;;2.67;;
29378;SDS011;16362;47.202;15.258;2024-03-23T05:56:10;2.35;;;2.25;;
29378;SDS011;16362;47.202;15.258;2024-03-23T05:58:36;5.07;;;2.35;;
29378;SDS011;16362;47.202;15.258;2024-03-23T06:01:03;2.60;;;2.40;;
29378;SDS011;16362;47.202;15.258;2024-03-23T06:03:30;5.97;;;2.38;;
29378;SDS011;16362;47.202;15.258;2024-03-23T06:06:02;2.90;;;2.63;;
29378;SDS011;16362;47.202;15.258;2024-03-23T06:08:29;2.97;;;2.70;;
29378;SDS011;16362;47.202;15.258;2024-03-23T06:10:57;2.50;;;2.30;;
29378;SDS011;16362;47.202;15.258;2024-03-23T06:13:35;3.15;;;2.95;;
29378;SDS011;16362;47.202;15.258;2024-03-23T06:16:09;2.13;;;1.88;;
29378;SDS011;16362;47.202;15.258;2024-03-23T06:18:36;2.70;;;2.60;;
29378;SDS011;16362;47.202;15.258;2024-03-23T06:21:02;2.55;;;2.45;;
29378;SDS011;16362;47.202;15.258;2024-03-23T06:23:28;2.22;;;2.13;;
29378;SDS011;16362;47.202;15.258;2024-03-23T06:26:00;2.40;;;2.25;;
29378;SDS011;16362;47.202;15.258;2024-03-23T06:28:25;2.40;;;2.28;;
29378;SDS011;16362;47.202;15.258;2024-03-23T06:30:52;2.50;;;2.40;;
29378;SDS011;16362;47.202;15.258;2024-03-23T06:33:19;2.42;;;2.22;;
29378;SDS011;16362;47.202;15.258;2024-03-23T06:35:54;12.07;;;2.35;;
29378;SDS011;16362;47.202;15.258;2024-03-23T06:38:31;2.10;;;2.00;;
29378;SDS011;16362;47.202;15.258;2024-03-23T06:41:10;2.40;;;2.25;;
29378;SDS011;16362;47.202;15.258;2024-03-23T06:43:36;2.47;;;2.38;;
29378;SDS011;16362;47.202;15.258;2024-03-23T06:46:03;4.30;;;2.15;;
29378;SDS011;16362;47.202;15.258;2024-03-23T06:48:30;2.38;;;2.28;;
29378;SDS011;16362;47.202;15.258;2024-03-23T06:50:58;2.60;;;2.50;;
29378;SDS011;16362;47.202;15.258;2024-03-23T06:53:26;2.50;;;2.00;;
29378;SDS011;16362;47.202;15.258;2024-03-23T06:55:53;3.13;;;2.22;;
29378;SDS011;16362;47.202;15.258;2024-03-23T06:58:25;2.50;;;2.40;;
29378;SDS011;16362;47.202;15.258;2024-03-23T07:00:51;3.03;;;2.83;;
29378;SDS011;16362;47.202;15.258;2024-03-23T07:03:18;2.50;;;2.40;;
29378;SDS011;16362;47.202;15.258;2024-03-23T07:05:43;2.53;;;2.42;;
29378;SDS011;16362;47.202;15.258;2024-03-23T07:08:09;2.50;;;2.40;;
29378;SDS011;16362;47.202;15.258;2024-03-23T07:10:37;2.95;;;2.63;;
29378;SDS011;16362;47.202;15.258;2024-03-23T07:13:04;2.95;;;2.85;;
29378;SDS011;16362;47.202;15.258;2024-03-23T07:15:30;4.00;;;2.47;;
29378;SDS011;16362;47.202;15.258;2024-03-23T07:17:56;2.72;;;2.63;;
29378;SDS011;16362;47.202;15.258;2024-03-23T07:20:21;2.92;;;2.72;;
29378;SDS011;16362;47.202;15.258;2024-03-23T07:22:47;2.90;;;2.70;;
29378;SDS011;16362;47.202;15.258;2024-03-23T07:25:13;3.05;;;2.83;;
29378;SDS011;16362;47.202;15.258;2024-03-23T07:27:39;2.47;;;2.38;;
29378;SDS011;16362;47.202;15.258;2024-03-23T07:30:06;2.90;;;2.65;;
29378;SDS011;16362;47.202;15.258;2024-03-23T07:32:34;2.58;;;2.47;;
29378;SDS011;16362;47.202;15.258;2024-03-23T07:35:02;1.92;;;1.83;;
29378;SDS011;16362;47.202;15.258;2024-03-23T07:37:31;3.80;;;2.50;;
29378;SDS011;16362;47.202;15.258;2024-03-23T07:39:57;2.70;;;2.50;;
29378;SDS011;16362;47.202;15.258;2024-03-23T07:42:23;2.40;;;2.30;;
29378;SDS011;16362;47.202;15.258;2024-03-23T07:44:59;2.47;;;2.38;;
29378;SDS011;16362;47.202;15.258;2024-03-23T07:47:26;2.55;;;2.45;;
29378;SDS011;16362;47.202;15.258;2024-03-23T07:49:52;2.63;;;2.53;;
29378;SDS011;16362;47.202;15.258;2024-03-23T07:52:20;3.08;;;2.92;;
29378;SDS011;16362;47.202;15.258;2024-03-23T07:54:46;2.80;;;2.70;;
29378;SDS011;16362;47.202;15.258;2024-03-23T07:57:18;2.70;;;2.60;;
29378;SDS011;16362;47.202;15.258;2024-03-23T07:59:49;2.40;;;2.30;;
29378;SDS011;16362;47.202;15.258;2024-03-23T08:02:15;3.13;;;2.72;;
29378;SDS011;16362;47.202;15.258;2024-03-23T08:04:52;2.90;;;2.70;;
29378;SDS011;16362;47.202;15.258;2024-03-23T08:07:31;2.78;;;2.63;;
29378;SDS011;16362;47.202;15.258;2024-03-23T08:09:58;3.00;;;2.72;;
29378;SDS011;16362;47.202;15.258;2024-03-23T08:12:26;2.40;;;2.30;;
29378;SDS011;16362;47.202;15.258;2024-03-23T08:14:54;2.50;;;2.40;;
29378;SDS011;16362;47.202;15.258;2024-03-23T08:17:21;2.72;;;2.63;;
29378;SDS011;16362;47.202;15.258;2024-03-23T08:19:51;3.40;;;2.38;;
29378;SDS011;16362;47.202;15.258;2024-03-23T08:22:19;2.42;;;2.33;;
29378;SDS011;16362;47.202;15.258;2024-03-23T08:24:49;2.33;;;2.20;;
29378;SDS011;16362;47.202;15.258;2024-03-23T08:27:18;2.10;;;2.00;;
29378;SDS011;16362;47.202;15.258;2024-03-23T08:29:50;4.25;;;2.13;;
29378;SDS011;16362;47.202;15.258;2024-03-23T08:32:18;2.20;;;2.10;;
29378;SDS011;16362;47.202;15.258;2024-03-23T08:34:48;5.72;;;2.40;;
29378;SDS011;16362;47.202;15.258;2024-03-23T08:37:21;2.35;;;2.05;;
29378;SDS011;16362;47.202;15.258;2024-03-23T08:39:51;2.22;;;2.03;;
29378;SDS011;16362;47.202;15.258;2024-03-23T08:42:21;2.63;;;2.42;;
29378;SDS011;16362;47.202;15.258;2024-03-23T08:44:50;6.97;;;2.95;;
29378;SDS011;16362;47.202;15.258;2024-03-23T08:47:16;3.35;;;2.72;;
29378;SDS011;16362;47.202;15.258;2024-03-23T08:49:42;2.30;;;2.15;;
29378;SDS011;16362;47.202;15.258;2024-03-23T08:52:08;3.28;;;2.00;;
29378;SDS011;16362;47.202;15.258;2024-03-23T08:54:34;2.50;;;2.40;;
29378;SDS011;16362;47.202;15.258;2024-03-23T08:57:00;2.70;;;2.60;;
29378;SDS011;16362;47.202;15.258;2024-03-23T08:59:25;2.78;;;2.58;;
29378;SDS011;16362;47.202;15.258;2024-03-23T09:01:52;2.90;;;2.67;;
29378;SDS011;16362;47.202;15.258;2024-03-23T09:04:18;2.50;;;2.40;;
29378;SDS011;16362;47.202;15.258;2024-03-23T09:06:43;2.28;;;2.05;;
29378;SDS011;16362;47.202;15.258;2024-03-23T09:09:19;2.50;;;2.40;;
29378;SDS011;16362;47.202;15.258;2024-03-23T09:11:46;2.10;;;2.00;;
29378;SDS011;16362;47.202;15.258;2024-03-23T09:14:13;1.80;;;1.70;;
29378;SDS011;16362;47.202;15.258;2024-03-23T09:16:55;2.42;;;2.33;;
29378;SDS011;16362;47.202;15.258;2024-03-23T09:19:28;2.45;;;1.98;;
29378;SDS011;16362;47.202;15.258;2024-03-23T09:21:55;5.00;;;2.03;;
29378;SDS011;16362;47.202;15.258;2024-03-23T09:24:28;2.42;;;2.20;;
29378;SDS011;16362;47.202;15.258;2024-03-23T09:26:58;2.50;;;2.30;;
29378;SDS011;16362;47.202;15.258;2024-03-23T09:29:26;3.00;;;2.63;;
29378;SDS011;16362;47.202;15.258;2024-03-23T09:31:56;4.20;;;2.20;;
29378;SDS011;16362;47.202;15.258;2024-03-23T09:34:22;5.38;;;2.20;;
29378;SDS011;16362;47.202;15.258;2024-03-23T09:37:00;2.40;;;2.30;;
29378;SDS011;16362;47.202;15.258;2024-03-23T09:39:37;2.42;;;2.33;;
29378;SDS011;16362;47.202;15.258;2024-03-23T09:42:06;2.90;;;1.95;;
29378;SDS011;16362;47.202;15.258;2024-03-23T09:44:35;3.22;;;2.42;;
29378;SDS011;16362;47.202;15.258;2024-03-23T09:47:02;2.55;;;2.33;;
29378;SDS011;16362;47.202;15.258;2024-03-23T09:49:46;2.92;;;2.45;;
29378;SDS011;16362;47.202;15.258;2024-03-23T09:52:13;2.78;;;2.60;;
29378;SDS011;16362;47.202;15.258;2024-03-23T09:54:39;1.85;;;1.75;;
29378;SDS011;16362;47.202;15.258;2024-03-23T09:57:14;2.33;;;2.22;;
29378;SDS011;16362;47.202;15.258;2024-03-23T09:59:42;3.08;;;2.00;;
29378;SDS011;16362;47.202;15.258;2024-03-23T10:02:23;1.90;;;1.80;;
29378;SDS011;16362;47.202;15.258;2024-03-23T10:04:49;1.88;;;1.77;;
29378;SDS011;16362;47.202;15.258;2024-03-23T10:07:18;2.92;;;1.45;;
29378;SDS011;16362;47.202;15.258;2024-03-23T10:09:51;1.70;;;1.60;;
29378;SDS011;16362;47.202;15.258;2024-03-23T10:12:23;1.70;;;1.60;;
29378;SDS011;16362;47.202;15.258;2024-03-23T10:14:51;1.60;;;1.60;;
29378;SDS011;16362;47.202;15.258;2024-03-23T10:17:20;1.80;;;1.70;;
29378;SDS011;16362;47.202;15.258;2024-03-23T10:19:51;2.03;;;1.45;;
29378;SDS011;16362;47.202;15.258;2024-03-23T10:22:24;2.17;;;1.33;;
29378;SDS011;16362;47.202;15.258;2024-03-23T10:24:57;1.20;;;1.20;;
29378;SDS011;16362;47.202;15.258;2024-03-23T10:27:33;1.10;;;1.10;;
29378;SDS011;16362;47.202;15.258;2024-03-23T10:30:08;1.63;;;1.60;;
29378;SDS011;16362;47.202;15.258;2024-03-23T10:32:35;1.27;;;1.23;;
29378;SDS011;16362;47.202;15.258;2024-03-23T10:37:47;1.67;;;1.58;;
29378;SDS011;16362;47.202;15.258;2024-03-23T10:40:15;2.22;;;2.13;;
29378;SDS011;16362;47.202;15.258;2024-03-23T10:42:41;2.30;;;2.20;;
29378;SDS011;16362;47.202;15.258;2024-03-23T10:45:07;2.08;;;1.98;;
29378;SDS011;16362;47.202;15.258;2024-03-23T10:47:34;2.45;;;2.20;;
29378;SDS011;16362;47.202;15.258;2024-03-23T10:50:03;3.40;;;3.10;;
29378;SDS011;16362;47.202;15.258;2024-03-23T10:52:32;1.80;;;1.73;;
29378;SDS011;16362;47.202;15.258;2024-03-23T10:54:58;2.15;;;1.80;;
29378;SDS011;16362;47.202;15.258;2024-03-23T11:00:27;4.78;;;2.50;;
29378;SDS011;16362;47.202;15.258;2024-03-23T11:02:53;2.20;;;2.08;;
29378;SDS011;16362;47.202;15.258;2024-03-23T11:05:32;2.03;;;1.92;;
29378;SDS011;16362;47.202;15.258;2024-03-23T11:13:59;3.10;;;2.28;;
29378;SDS011;16362;47.202;15.258;2024-03-23T11:16:28;2.80;;;2.60;;
29378;SDS011;16362;47.202;15.258;2024-03-23T11:19:34;2.30;;;2.20;;
29378;SDS011;16362;47.202;15.258;2024-03-23T11:22:01;2.67;;;2.50;;
29378;SDS011;16362;47.202;15.258;2024-03-23T11:24:27;2.95;;;2.70;;
29378;SDS011;16362;47.202;15.258;2024-03-23T11:26:54;2.50;;;2.40;;
29378;SDS011;16362;47.202;15.258;2024-03-23T11:29:20;4.53;;;2.60;;
29378;SDS011;16362;47.202;15.258;2024-03-23T11:31:51;2.22;;;2.13;;
29378;SDS011;16362;47.202;15.258;2024-03-23T11:34:19;2.50;;;2.40;;
29378;SDS011;16362;47.202;15.258;2024-03-23T11:36:46;3.40;;;2.22;;
29378;SDS011;16362;47.202;15.258;2024-03-23T11:39:13;2.72;;;2.28;;
29378;SDS011;16362;47.202;15.258;2024-03-23T11:41:54;2.53;;;2.42;;
29378;SDS011;16362;47.202;15.258;2024-03-23T11:44:22;5.13;;;2.88;;
29378;SDS011;16362;47.202;15.258;2024-03-23T11:46:52;3.15;;;2.72;;
29378;SDS011;16362;47.202;15.258;2024-03-23T11:49:31;2.70;;;2.60;;
29378;SDS011;16362;47.202;15.258;2024-03-23T11:52:02;2.42;;;2.33;;
29378;SDS011;16362;47.202;15.258;2024-03-23T11:54:28;2.50;;;2.30;;
29378;SDS011;16362;47.202;15.258;2024-03-23T11:56:55;3.50;;;2.72;;
29378;SDS011;16362;47.202;15.258;2024-03-23T12:02:15;2.75;;;2.55;;
29378;SDS011;16362;47.202;15.258;2024-03-23T12:04:43;2.97;;;2.88;;
29378;SDS011;16362;47.202;15.258;2024-03-23T12:07:13;3.03;;;2.78;;
29378;SDS011;16362;47.202;15.258;2024-03-23T12:10:09;5.05;;;3.47;;
29378;SDS011;16362;47.202;15.258;2024-03-23T12:12:35;3.10;;;3.00;;
29378;SDS011;16362;47.202;15.258;2024-03-23T12:15:06;4.15;;;2.90;;
29378;SDS011;16362;47.202;15.258;2024-03-23T12:17:34;4.00;;;3.17;;
29378;SDS011;16362;47.202;15.258;2024-03-23T12:20:04;11.13;;;3.72;;
29378;SDS011;16362;47.202;15.258;2024-03-23T12:22:49;3.60;;;3.38;;
29378;SDS011;16362;47.202;15.258;2024-03-23T12:25:15;3.22;;;3.13;;
29378;SDS011;16362;47.202;15.258;2024-03-23T12:27:43;8.55;;;3.63;;
29378;SDS011;16362;47.202;15.258;2024-03-23T12:30:09;4.63;;;3.67;;
29378;SDS011;16362;47.202;15.258;2024-03-23T12:32:37;4.68;;;3.65;;
29378;SDS011;16362;47.202;15.258;2024-03-23T12:35:12;3.83;;;3.53;;
29378;SDS011;16362;47.202;15.258;2024-03-23T12:37:39;4.30;;;4.00;;
29378;SDS011;16362;47.202;15.258;2024-03-23T12:40:11;3.55;;;3.42;;
29378;SDS011;16362;47.202;15.258;2024-03-23T12:42:37;3.58;;;3.33;;
29378;SDS011;16362;47.202;15.258;2024-03-23T12:45:03;7.85;;;3.70;;
29378;SDS011;16362;47.202;15.258;2024-03-23T12:47:34;8.38;;;3.65;;
29378;SDS011;16362;47.202;15.258;2024-03-23T12:50:00;4.75;;;3.67;;
29378;SDS011;16362;47.202;15.258;2024-03-23T12:52:34;3.92;;;3.63;;
29378;SDS011;16362;47.202;15.258;2024-03-23T12:55:00;3.70;;;3.40;;
29378;SDS011;16362;47.202;15.258;2024-03-23T12:57:41;3.90;;;3.75;;
29378;SDS011;16362;47.202;15.258;2024-03-23T13:00:08;3.85;;;3.55;;
29378;SDS011;16362;47.202;15.258;2024-03-23T13:02:38;6.50;;;4.03;;
29378;SDS011;16362;47.202;15.258;2024-03-23T13:05:04;4.07;;;3.88;;
29378;SDS011;16362;47.202;15.258;2024-03-23T13:07:31;4.03;;;3.72;;
29378;SDS011;16362;47.202;15.258;2024-03-23T13:10:03;3.95;;;3.75;;
29378;SDS011;16362;47.202;15.258;2024-03-23T13:12:30;4.15;;;3.95;;
29378;SDS011;16362;47.202;15.258;2024-03-23T13:14:56;4.25;;;3.95;;
29378;SDS011;16362;47.202;15.258;2024-03-23T13:17:22;4.28;;;4.05;;
29378;SDS011;16362;47.202;15.258;2024-03-23T13:19:47;5.95;;;3.83;;
29378;SDS011;16362;47.202;15.258;2024-03-23T13:22:13;6.47;;;3.35;;
29378;SDS011;16362;47.202;15.258;2024-03-23T13:24:39;3.70;;;3.47;;
29378;SDS011;16362;47.202;15.258;2024-03-23T13:27:04;4.00;;;3.80;;
29378;SDS011;16362;47.202;15.258;2024-03-23T13:29:33;3.95;;;3.75;;
29378;SDS011;16362;47.202;15.258;2024-03-23T13:32:01;3.78;;;3.47;;
29378;SDS011;16362;47.202;15.258;2024-03-23T13:34:27;4.85;;;3.60;;
29378;SDS011;16362;47.202;15.258;2024-03-23T13:36:54;3.45;;;3.35;;
29378;SDS011;16362;47.202;15.258;2024-03-23T13:39:22;7.18;;;3.83;;
29378;SDS011;16362;47.202;15.258;2024-03-23T13:41:48;3.50;;;3.20;;
29378;SDS011;16362;47.202;15.258;2024-03-23T13:44:14;3.20;;;3.00;;
29378;SDS011;16362;47.202;15.258;2024-03-23T13:46:41;3.58;;;3.38;;
29378;SDS011;16362;47.202;15.258;2024-03-23T13:51:57;3.90;;;3.70;;
29378;SDS011;16362;47.202;15.258;2024-03-23T13:54:27;4.40;;;3.97;;
29378;SDS011;16362;47.202;15.258;2024-03-23T13:56:55;4.05;;;3.85;;
29378;SDS011;16362;47.202;15.258;2024-03-23T13:59:25;4.03;;;3.83;;
29378;SDS011;16362;47.202;15.258;2024-03-23T14:01:59;3.97;;;3.70;;
29378;SDS011;16362;47.202;15.258;2024-03-23T14:04:37;3.83;;;3.60;;
29378;SDS011;16362;47.202;15.258;2024-03-23T14:07:14;3.92;;;3.72;;
29378;SDS011;16362;47.202;15.258;2024-03-23T14:09:56;4.03;;;3.83;;
29378;SDS011;16362;47.202;15.258;2024-03-23T14:12:28;4.18;;;3.90;;
29378;SDS011;16362;47.202;15.258;2024-03-23T14:14:56;5.05;;;4.03;;
29378;SDS011;16362;47.202;15.258;2024-03-23T14:17:26;5.75;;;3.70;;
29378;SDS011;16362;47.202;15.258;2024-03-23T14:19:53;4.40;;;4.10;;
29378;SDS011;16362;47.202;15.258;2024-03-23T14:22:22;4.40;;;4.07;;
29378;SDS011;16362;47.202;15.258;2024-03-23T14:24:48;4.45;;;4.07;;
29378;SDS011;16362;47.202;15.258;2024-03-23T14:27:14;9.13;;;4.60;;
29378;SDS011;16362;47.202;15.258;2024-03-23T14:29:47;6.07;;;5.40;;
29378;SDS011;16362;47.202;15.258;2024-03-23T14:32:25;6.72;;;6.10;;
29378;SDS011;16362;47.202;15.258;2024-03-23T14:34:51;4.97;;;4.68;;
29378;SDS011;16362;47.202;15.258;2024-03-23T14:37:22;5.03;;;4.60;;
29378;SDS011;16362;47.202;15.258;2024-03-23T14:39:48;5.30;;;4.95;;
29378;SDS011;16362;47.202;15.258;2024-03-23T14:42:15;5.28;;;4.97;;
29378;SDS011;16362;47.202;15.258;2024-03-23T14:44:42;4.35;;;4.05;;
29378;SDS011;16362;47.202;15.258;2024-03-23T14:47:21;8.18;;;3.53;;
29378;SDS011;16362;47.202;15.258;2024-03-23T14:49:52;1.48;;;1.48;;
29378;SDS011;16362;47.202;15.258;2024-03-23T14:52:18;1.70;;;1.20;;
29378;SDS011;16362;47.202;15.258;2024-03-23T14:54:44;1.40;;;1.30;;
29378;SDS011;16362;47.202;15.258;2024-03-23T14:57:10;1.73;;;0.90;;
29378;SDS011;16362;47.202;15.258;2024-03-23T14:59:36;1.40;;;1.00;;
29378;SDS011;16362;47.202;15.258;2024-03-23T15:02:06;1.27;;;1.25;;
29378;SDS011;16362;47.202;15.258;2024-03-23T15:04:32;7.65;;;1.10;;
29378;SDS011;16362;47.202;15.258;2024-03-23T15:06:58;1.23;;;0.82;;
29378;SDS011;16362;47.202;15.258;2024-03-23T15:09:23;0.70;;;0.70;;
29378;SDS011;16362;47.202;15.258;2024-03-23T15:11:49;1.55;;;0.70;;
29378;SDS011;16362;47.202;15.258;2024-03-23T15:14:14;3.72;;;0.80;;
29378;SDS011;16362;47.202;15.258;2024-03-23T15:16:40;0.60;;;0.60;;
29378;SDS011;16362;47.202;15.258;2024-03-23T15:19:07;2.40;;;0.40;;
29378;SDS011;16362;47.202;15.258;2024-03-23T15:21:36;1.55;;;0.40;;
29378;SDS011;16362;47.202;15.258;2024-03-23T15:24:02;1.05;;;0.55;;
29378;SDS011;16362;47.202;15.258;2024-03-23T15:26:28;0.20;;;0.20;;
29378;SDS011;16362;47.202;15.258;2024-03-23T15:29:04;0.73;;;0.20;;
29378;SDS011;16362;47.202;15.258;2024-03-23T15:31:41;0.30;;;0.30;;
29378;SDS011;16362;47.202;15.258;2024-03-23T15:34:09;0.30;;;0.30;;
29378;SDS011;16362;47.202;15.258;2024-03-23T15:36:44;0.40;;;0.20;;
29378;SDS011;16362;47.202;15.258;2024-03-23T15:39:24;5.72;;;0.20;;
29378;SDS011;16362;47.202;15.258;2024-03-23T15:41:50;0.25;;;0.20;;
29378;SDS011;16362;47.202;15.258;2024-03-23T15:44:17;0.10;;;0.10;;
29378;SDS011;16362;47.202;15.258;2024-03-23T15:46:42;0.10;;;0.10;;
29378;SDS011;16362;47.202;15.258;2024-03-23T15:49:20;0.20;;;0.20;;
29378;SDS011;16362;47.202;15.258;2024-03-23T15:51:52;0.10;;;0.10;;
29378;SDS011;16362;47.202;15.258;2024-03-23T15:54:28;2.67;;;0.20;;